Bookmark and Share
Track history (hours):
 

Nissos Mykonos

Last reported at 2013-Sep-16 13:28 UTC. Time now 2014-Apr-23 06:47 UTC.
Position N 37°57' E 023°33'.
Warning: this ship's position is months out of date.

Length 141 m; draft 5.3 m.

Type: Passenger vessel. MMSI: 240389000.

NotesDate/timePositionNaut miles runAvg speedWind from/ knotsBaromVisibWave heightAir tempDewpointWater temp
2013-Sep-16 13:28N 37°57' E 023°33'1 0.9
2013-Sep-16 12:33N 37°57' E 023°34'3 3.3
2013-Sep-16 11:33N 37°57' E 023°38'0 0.0
2013-Sep-16 10:33N 37°57' E 023°38'0 0.0
2013-Sep-16 09:33N 37°57' E 023°38'0 0.0
2013-Sep-16 08:33N 37°57' E 023°38'0 0.0
2013-Sep-16 07:33N 37°57' E 023°38'0 0.0
2013-Sep-16 06:33N 37°57' E 023°38'0 0.0
2013-Sep-16 05:33N 37°57' E 023°38'0 0.0
2013-Sep-16 04:33N 37°57' E 023°38'0 0.0
2013-Sep-16 03:33N 37°57' E 023°38'0 0.0
2013-Sep-16 02:33N 37°57' E 023°38'0 0.0
2013-Sep-16 01:33N 37°57' E 023°38'0 0.0
2013-Sep-16 00:33N 37°57' E 023°38'0 0.0
2013-Sep-15 23:33N 37°57' E 023°38'0 0.0
2013-Sep-15 22:33N 37°57' E 023°38'0 0.0
2013-Sep-15 21:33N 37°57' E 023°38'0 0.0
2013-Sep-15 20:33N 37°57' E 023°38'0 0.0
2013-Sep-15 19:33N 37°57' E 023°38'0 0.0
2013-Sep-15 18:34N 37°57' E 023°38'1818.2
2013-Sep-15 17:33N 37°40' E 023°48'2525.1
2013-Sep-15 16:33N 37°31' E 024°18'2525.4
2013-Sep-15 15:33N 37°31' E 024°50'1212.1
2013-Sep-15 14:33N 37°27' E 025°04'1212.1
2013-Sep-15 13:33N 37°28' E 025°19'3022.4
2013-Sep-15 12:14N 37°37' E 025°54'18 0.7
2013-Sep-14 10:33N 37°33' E 025°33'1211.9
2013-Sep-14 09:33N 37°28' E 025°19'1816.7
2013-Sep-14 08:29N 37°26' E 024°57'1920.0
2013-Sep-14 07:33N 37°32' E 024°34'2524.5
2013-Sep-14 06:32N 37°34' E 024°03'2323.8
2013-Sep-14 05:34N 37°48' E 023°39'9 9.1
2013-Sep-14 04:33N 37°57' E 023°38'0 0.0
2013-Sep-14 03:33N 37°57' E 023°38'0 0.0
2013-Sep-14 02:33N 37°57' E 023°38'0 0.0
2013-Sep-14 01:33N 37°57' E 023°38'0 0.0
2013-Sep-14 00:34N 37°57' E 023°38'0 0.0
2013-Sep-13 23:33N 37°57' E 023°38'0 0.0
2013-Sep-13 22:34N 37°57' E 023°38'1414.5
2013-Sep-13 21:34N 37°43' E 023°44'2525.1
2013-Sep-13 20:33N 37°32' E 024°13'2524.9
2013-Sep-13 19:33N 37°31' E 024°44'1210.9
2013-Sep-13 18:29N 37°26' E 024°57'1818.9
2013-Sep-13 17:33N 37°28' E 025°19'1716.9
2013-Sep-13 16:32N 37°34' E 025°39'2524.5
2013-Sep-13 15:30N 37°39' E 026°11'1313.2
2013-Sep-13 14:32N 37°44' E 026°26'9 4.7
2013-Sep-13 12:32N 37°40' E 026°15'8 8.4
2013-Sep-13 11:33N 37°39' E 026°04'2525.4
2013-Sep-13 10:33N 37°33' E 025°33'1212.3
2013-Sep-13 09:34N 37°28' E 025°19'2216.2
2013-Sep-13 08:10N 37°31' E 024°52'1525.0
2013-Sep-13 07:33N 37°31' E 024°32'2524.7
2013-Sep-13 06:34N 37°35' E 024°01'2322.9
2013-Sep-13 05:34N 37°49' E 023°38'8 7.9
2013-Sep-13 04:33N 37°57' E 023°38'0 0.0
2013-Sep-13 03:33N 37°57' E 023°38'0 0.0
2013-Sep-13 02:33N 37°57' E 023°38'0 0.0
2013-Sep-13 01:33N 37°57' E 023°38'0 0.0
2013-Sep-13 00:33N 37°57' E 023°38'0 0.0
2013-Sep-12 23:33N 37°57' E 023°38'0 0.0
2013-Sep-12 22:33N 37°57' E 023°38'0 0.0
2013-Sep-12 21:33N 37°57' E 023°38'0 0.0
2013-Sep-12 20:33N 37°57' E 023°38'0 0.0
2013-Sep-12 19:33N 37°57' E 023°38'0 0.0
2013-Sep-12 18:34N 37°57' E 023°38'0 0.0
2013-Sep-12 17:33N 37°57' E 023°38'0 0.0
2013-Sep-12 16:33N 37°57' E 023°38'0 0.0
2013-Sep-12 15:33N 37°57' E 023°38'0 0.0
2013-Sep-12 14:33N 37°57' E 023°38'0 0.0
2013-Sep-12 13:34N 37°57' E 023°38'0 0.0
2013-Sep-12 12:33N 37°57' E 023°38'0 0.0
2013-Sep-12 11:33N 37°57' E 023°38'0 0.0
2013-Sep-12 10:33N 37°57' E 023°38'0 0.0
2013-Sep-12 09:33N 37°57' E 023°38'0 0.0
2013-Sep-12 08:34N 37°57' E 023°38'0 0.0
2013-Sep-12 07:33N 37°57' E 023°38'0 0.0
2013-Sep-12 06:33N 37°57' E 023°38'0 0.0
2013-Sep-12 05:33N 37°57' E 023°38'0 0.0
2013-Sep-12 04:34N 37°57' E 023°38'0 0.0
2013-Sep-12 03:33N 37°57' E 023°38'0 0.0
2013-Sep-12 02:34N 37°57' E 023°38'0 0.0
2013-Sep-12 01:33N 37°57' E 023°38'0 0.0
2013-Sep-12 00:33N 37°57' E 023°38'0 0.0
2013-Sep-11 23:33N 37°57' E 023°38'0 0.0
2013-Sep-11 22:33N 37°57' E 023°38'1514.5
2013-Sep-11 21:33N 37°43' E 023°45'2524.6
2013-Sep-11 20:33N 37°32' E 024°13'2525.0
2013-Sep-11 19:33N 37°31' E 024°44'1311.5
2013-Sep-11 18:26N 37°26' E 024°59'1618.2
2013-Sep-11 17:33N 37°28' E 025°19'1816.6
2013-Sep-11 16:29N 37°34' E 025°40'3719.1
2013-Sep-11 14:32N 37°44' E 026°25'1311.9
2013-Sep-11 13:26N 37°48' E 026°41'2224.7
2013-Sep-11 12:32N 37°40' E 026°15'10 9.7
2013-Sep-11 11:32N 37°38' E 026°03'2425.2
2013-Sep-11 10:33N 37°33' E 025°33'1211.8
2013-Sep-11 09:34N 37°28' E 025°19'1815.8
2013-Sep-11 08:27N 37°26' E 024°57'1921.7
2013-Sep-11 07:33N 37°31' E 024°34'2525.1
2013-Sep-11 06:34N 37°35' E 024°02'2323.4
2013-Sep-11 05:34N 37°48' E 023°38'8 8.5
2013-Sep-11 04:33N 37°57' E 023°38'0 0.0
2013-Sep-11 03:33N 37°57' E 023°38'0 0.0
2013-Sep-11 02:33N 37°57' E 023°38'0 0.0
2013-Sep-11 01:33N 37°57' E 023°38'0 0.0
2013-Sep-11 00:33N 37°57' E 023°38'0 0.0
2013-Sep-10 23:33N 37°57' E 023°38'0 0.0
2013-Sep-10 22:33N 37°57' E 023°38'0 0.0
2013-Sep-10 21:33N 37°57' E 023°38'0 0.0
2013-Sep-10 20:33N 37°57' E 023°38'0 0.0
2013-Sep-10 19:33N 37°57' E 023°38'0 0.0
2013-Sep-10 18:33N 37°57' E 023°38'0 0.0
2013-Sep-10 17:33N 37°57' E 023°38'0 0.0
2013-Sep-10 16:33N 37°57' E 023°38'0 0.0
2013-Sep-10 15:33N 37°57' E 023°38'0 0.0
2013-Sep-10 14:33N 37°57' E 023°38'0 0.0
2013-Sep-10 13:33N 37°57' E 023°38'0 0.0
2013-Sep-10 12:33N 37°57' E 023°38'0 0.0
2013-Sep-10 11:34N 37°57' E 023°38'0 0.0
2013-Sep-10 10:33N 37°57' E 023°38'0 0.0
2013-Sep-10 09:33N 37°57' E 023°38'0 0.0
2013-Sep-10 08:33N 37°57' E 023°38'0 0.0
2013-Sep-10 07:33N 37°57' E 023°38'0 0.0
2013-Sep-10 06:33N 37°57' E 023°38'0 0.0
2013-Sep-10 05:33N 37°57' E 023°38'0 0.0
2013-Sep-10 04:33N 37°57' E 023°38'0 0.0
2013-Sep-10 03:33N 37°57' E 023°38'0 0.0
2013-Sep-10 02:33N 37°57' E 023°38'0 0.0
2013-Sep-10 01:33N 37°57' E 023°38'0 0.0
2013-Sep-10 00:33N 37°57' E 023°38'0 0.0
2013-Sep-09 23:33N 37°57' E 023°38'0 0.0
2013-Sep-09 22:33N 37°57' E 023°38'1413.7
2013-Sep-09 21:33N 37°44' E 023°44'2524.9
2013-Sep-09 20:33N 37°32' E 024°12'2525.3
2013-Sep-09 19:33N 37°31' E 024°44'1211.4
2013-Sep-09 18:32N 37°26' E 024°57'1818.2
2013-Sep-09 17:33N 37°28' E 025°19'1717.3
2013-Sep-09 16:33N 37°36' E 025°39'2718.2
2013-Sep-09 15:03N 37°39' E 026°13'1224.5
2013-Sep-09 14:33N 37°45' E 026°27'4611.6
2013-Sep-09 10:34N 37°34' E 025°30'1111.1
2013-Sep-09 09:33N 37°27' E 025°19'1716.7
2013-Sep-09 08:31N 37°26' E 024°57'2521.0
2013-Sep-09 07:19N 37°32' E 024°26'1824.2
2013-Sep-09 06:33N 37°33' E 024°03'2423.9
2013-Sep-09 05:34N 37°48' E 023°39'9 8.9
2013-Sep-09 04:33N 37°57' E 023°38'0 0.0
2013-Sep-09 03:33N 37°57' E 023°38'0 0.0
2013-Sep-09 02:33N 37°57' E 023°38'0 0.0
2013-Sep-09 01:33N 37°57' E 023°38'0 0.0
2013-Sep-09 00:33N 37°57' E 023°38'0 0.0
2013-Sep-08 23:33N 37°57' E 023°38'0 0.0
2013-Sep-08 22:33N 37°57' E 023°38'0 0.0
2013-Sep-08 21:33N 37°57' E 023°38'0 0.0
2013-Sep-08 20:33N 37°57' E 023°38'0 0.0
2013-Sep-08 19:33N 37°57' E 023°38'2 1.9
2013-Sep-08 18:34N 37°55' E 023°37'1818.1
2013-Sep-08 17:34N 37°40' E 023°49'2524.9
2013-Sep-08 16:33N 37°30' E 024°18'2525.2
2013-Sep-08 15:33N 37°31' E 024°50'1211.7
2013-Sep-08 14:33N 37°27' E 025°03'1312.9
2013-Sep-08 13:33N 37°28' E 025°19'2019.7
2013-Sep-08 12:31N 37°35' E 025°44'2316.7
2013-Sep-08 11:08N 37°39' E 026°13'1525.2
2013-Sep-08 10:32N 37°45' E 026°29'14 0.7
2013-Sep-07 14:05N 37°49' E 026°47'5 7.4
2013-Sep-07 13:26N 37°48' E 026°41'2224.7
2013-Sep-07 12:32N 37°40' E 026°15'9 9.3
2013-Sep-07 11:32N 37°39' E 026°04'2525.3
2013-Sep-07 10:33N 37°33' E 025°33'1212.1
2013-Sep-07 09:33N 37°28' E 025°19'1817.7
2013-Sep-07 08:32N 37°26' E 024°57'1717.8
2013-Sep-07 07:33N 37°31' E 024°36'2525.0
2013-Sep-07 06:34N 37°34' E 024°04'2424.0
2013-Sep-07 05:34N 37°47' E 023°39'9 9.2
2013-Sep-07 04:33N 37°57' E 023°38'0 0.0
2013-Sep-07 03:33N 37°57' E 023°38'0 0.0
2013-Sep-07 02:33N 37°57' E 023°38'0 0.0
2013-Sep-07 01:33N 37°57' E 023°38'0 0.0
2013-Sep-07 00:33N 37°57' E 023°38'0 0.0
2013-Sep-06 23:33N 37°57' E 023°38'0 0.0
2013-Sep-06 22:33N 37°57' E 023°38'1414.4
2013-Sep-06 21:34N 37°43' E 023°44'3024.6
2013-Sep-06 20:20N 37°31' E 024°19'2225.2
2013-Sep-06 19:27N 37°31' E 024°47'1010.5
2013-Sep-06 18:32N 37°26' E 024°57'1818.1
2013-Sep-06 17:33N 37°28' E 025°19'1716.4
2013-Sep-06 16:33N 37°34' E 025°39'2524.7
2013-Sep-06 15:31N 37°39' E 026°10'1514.8
2013-Sep-06 14:32N 37°45' E 026°27'  

Dump ship's entire track history

sailing weather and tide predictions

Nissos Mykonos — SYJZ — position and weather